This is the latest recevied weather packets stored in our database for station/object NK7I. If no packets are shown the sender has not sent any weather packets the latest 1 day(s).
| Time | Temp. | Humidity | Pressure | Rain* | Wind** | Luminosity | Snow |
|---|---|---|---|---|---|---|---|
| 1836274756 | 17.78° C | 63% | 1014.8 hPa | 0 mm | 0 m/s | 0 W/m² | - |
| 1836274456 | 17.78° C | 65% | 1014.8 hPa | 0 mm | 0 m/s | 0 W/m² | - |
| 1836274306 | 17.78° C | 64% | 1014.8 hPa | 0 mm | 0 m/s | 0 W/m² | - |
| 1836274156 | 17.78° C | 65% | 1014.7 hPa | 0 mm | 0 m/s | 0 W/m² | - |
| 1778060483 | 6.11° C | 78% | 1013.4 hPa | 0 mm | 0 m/s | 0 W/m² | - |
| 1778060183 | 6.11° C | 77% | 1013.3 hPa | 0 mm | 0 m/s | 0 W/m² | - |
| 1778059883 | 6.11° C | 76% | 1013.4 hPa | 0 mm | 0 m/s | 0 W/m² | - |
| 1778059582 | 6.11° C | 76% | 1013.4 hPa | 0 mm | 0 m/s | 0 W/m² | - |
| 1778059283 | 6.67° C | 75% | 1013.5 hPa | 0 mm | 0 m/s | 0 W/m² | - |
| 1778058983 | 6.67° C | 74% | 1013.5 hPa | 0 mm | 0 m/s | 0 W/m² | - |
| 1778058683 | 6.67° C | 74% | 1013.4 hPa | 0 mm | 0 m/s | 0 W/m² | - |
| 1778058383 | 7.22° C | 73% | 1013.4 hPa | 0 mm | 0 m/s | 0 W/m² | - |
| 1778058083 | 7.22° C | 72% | 1013.4 hPa | 0 mm | 0 m/s | 0 W/m² | - |
| 1778057783 | 7.22° C | 71% | 1013.3 hPa | 0 mm | 0 m/s | 0 W/m² | - |
| 1778057483 | 7.78° C | 71% | 1013.3 hPa | 0 mm | 0 m/s | 0 W/m² | - |
| 1778057183 | 7.78° C | 69% | 1013.2 hPa | 0 mm | 0 m/s | 0 W/m² | - |
| 1778056883 | 8.33° C | 68% | 1013.2 hPa | 0 mm | 0 m/s | 0 W/m² | - |
| 1778056584 | 8.33° C | 67% | 1013.2 hPa | 0 mm | 0 m/s | 0 W/m² | - |
| 1778056283 | 8.33° C | 68% | 1013.2 hPa | 0 mm | 0.45 m/s, 237° | 0 W/m² | - |
| 1778055983 | 8.89° C | 65% | 1013.2 hPa | 0 mm | 0.89 m/s, 237° | 0 W/m² | - |
| 1778055683 | 9.44° C | 63% | 1013.2 hPa | 0 mm | 0 m/s | 0 W/m² | - |
| 1778055383 | 9.44° C | 57% | 1013.2 hPa | 0 mm | 0 m/s | 0 W/m² | - |
| 1778055083 | 9.44° C | 55% | 1013.1 hPa | 0 mm | 0 m/s | 0 W/m² | - |
| 1778054784 | 9.44° C | 55% | 1013.1 hPa | 0 mm | 0 m/s | 0 W/m² | - |
| 1778054483 | 9.44° C | 55% | 1013.1 hPa | 0 mm | 0 m/s | 0 W/m² | - |
* Rain latest hour (hover to see other rain measurements)
** Current wind speed in m/s (hover to see current wind gust speed)